Van Buren, Washington
Current Conditions -  °F | °C
As of 9:40 PM on Wednesday 22 Oct 2014 (Local Time) from CYXX Reporting Station
Rain Showers Rain Showers  
Wind Chill: 13°   Ceiling: 3000
Heat Index: 13°   Visibility: 15mi
Dew Point: 11°   Wind: 25mph
Humidity: 88%   Direction: 170°S
Pressure: 29.53"   Gusts: 36mph
Location:  48.9068°N, 122.295°W
Report Text: CYXX 230440Z 17022G31KT 15SM -SHRA BKN030 OVC060 13/11 A2953 RMK SC5SC3 CVCTV CLD EMBD SLP998 DENSITY ALT 500FT
Loading
Personal Weather Stations






























Interactive Weather Map
Tropical Storm Tracking
New forecast layout! Learn more

10-Day Weather Forecast

Advertisements
Track Severe Weather on mobile